首页
METAR-TAF:

METAR-TAF

机场 :

累西腓/瓜拉拉皮斯-吉尔贝托·弗雷雷国际机场

累西腓, 伯南布哥, 巴西

纬度: 08-08S, 经度: 034-55W, 海拔: 19米

当前天气观测

该预报发布于35分钟前的18:00 UTC
风速14节,风向东南
温度 27°C
湿度 70%
气压 1018 hPa
能见度10公里或以上
散云层高于2500英尺

METAR: SBRF 171800Z 14014KT 9999 SCT025 27/21 Q1018

时间: 15:35 (18:35 UTC)

预报

该预报发布于3小时和5分钟前的15:30 UTC
预报有效从17日的 18点(UTC)到 18日的 18点(UTC)
风速10节,风向东南
能見度: 8000
散云层高于2200英尺

TAF: SBRF 171530Z 1718/1818 13010KT 8000 SCT022 TN25/1808Z TX28/1814Z RMK PEA

超过4000个机场的气象观测和天气预报(METAR&TAF报告)。

可查询的气象台以黄色和红色小点在地图上表示。

将鼠标移到小点上方,可查看气象台名称。

然后点击查看天气观测和预报。

如需切换地图:点击带黑十字的绿色按钮放大地图;点击带横线的绿色按钮缩小地图;或者点击绿色箭头查看邻近地区的地图。


METAR-TAF: